Time;durP1;ratioP1;P1;durP2;ratioP2;P2;SDS_P1;SDS_P2;PMS_P1;PMS_P2;Temp;Humidity;BMP_temperature;BMP_pressure;BME280_temperature;BME280_humidity;BME280_pressure;Samples;Min_cycle;Max_cycle;Signal;HPM_P1;HPM_P2
2023/04/08 00:00:11;;;;;;;;;;;;;;;6.55;nan;101601.97;4141922;28;19930;-65
2023/04/08 00:02:15;;;;;;;;;;;;;;;6.58;nan;101603.50;4140687;28;20410;-66
2023/04/08 00:04:18;;;;;;;;;;;;;;;6.59;nan;101602.53;4141873;28;19932;-66
2023/04/08 00:06:20;;;;;;;;;;;;;;;6.59;nan;101607.91;4141092;28;20387;-65
2023/04/08 00:08:22;;;;;;;;;;;;;;;6.58;nan;101604.38;4141089;28;19930;-66
2023/04/08 00:10:25;;;;;;;;;;;;;;;6.57;nan;101612.56;4140545;28;19925;-66
2023/04/08 00:12:27;;;;;;;;;;;;;;;6.57;nan;101615.25;4139918;28;19932;-66
2023/04/08 00:14:30;;;;;;;;;;;;;;;6.57;nan;101608.03;4140421;28;20501;-66
2023/04/08 00:16:33;;;;;;;;;;;;;;;6.54;nan;101599.41;4140364;28;20311;-67
2023/04/08 00:18:36;;;;;;;;;;;;;;;6.55;nan;101614.50;4140311;28;19925;-66
2023/04/08 00:20:39;;;;;;;;;;;;;;;6.54;nan;101613.66;4140075;28;20396;-66
2023/04/08 00:22:41;;;;;;;;;;;;;;;6.54;nan;101616.34;4140014;28;19926;-66
2023/04/08 00:24:43;;;;;;;;;;;;;;;6.55;nan;101611.81;4141941;28;20003;-64
2023/04/08 00:26:45;;;;;;;;;;;;;;;6.54;nan;101612.81;4140559;28;19955;-66
2023/04/08 00:28:48;;;;;;;;;;;;;;;6.53;nan;101608.44;4141245;28;19932;-65
2023/04/08 00:30:51;;;;;;;;;;;;;;;6.52;nan;101609.41;4140170;28;20392;-66
2023/04/08 00:32:53;;;;;;;;;;;;;;;6.53;nan;101605.75;4145583;28;19933;-66
2023/04/08 00:34:56;;;;;;;;;;;;;;;6.52;nan;101610.28;4139912;28;19932;-66
2023/04/08 00:36:58;;;;;;;;;;;;;;;6.53;nan;101620.00;4145571;28;20335;-65
2023/04/08 00:39:01;;;;;;;;;;;;;;;6.52;nan;101612.94;4155668;28;20388;-66
2023/04/08 00:41:03;;;;;;;;;;;;;;;6.54;nan;101618.19;4141175;28;19955;-66
2023/04/08 00:43:05;;;;;;;;;;;;;;;6.53;nan;101619.16;4161532;28;20409;-66
2023/04/08 00:45:08;;;;;;;;;;;;;;;6.51;nan;101605.88;4139439;28;19930;-66
2023/04/08 00:47:13;;;;;;;;;;;;;;;6.51;nan;101605.88;4145185;28;19929;-66
2023/04/08 00:49:16;;;;;;;;;;;;;;;6.52;nan;101612.06;4146117;28;19931;-66
2023/04/08 00:51:18;;;;;;;;;;;;;;;6.52;nan;101612.06;4139877;28;19930;-66
2023/04/08 00:53:20;;;;;;;;;;;;;;;6.49;nan;101614.06;4138803;28;19929;-65
2023/04/08 00:55:23;;;;;;;;;;;;;;;6.48;nan;101608.81;4140608;28;20312;-66
2023/04/08 00:57:25;;;;;;;;;;;;;;;6.48;nan;101606.13;4161239;28;19929;-66
2023/04/08 00:59:27;;;;;;;;;;;;;;;6.50;nan;101606.84;4145688;28;19926;-66
2023/04/08 01:01:31;;;;;;;;;;;;;;;6.49;nan;101607.84;4139236;28;19930;-66
2023/04/08 01:03:37;;;;;;;;;;;;;;;6.49;nan;101614.06;4138486;28;20000;-66
2023/04/08 01:05:55;;;;;;;;;;;;;;;6.47;nan;101616.03;4145816;28;20536;-67
2023/04/08 01:07:57;;;;;;;;;;;;;;;6.45;nan;101615.28;4139701;28;19925;-67
2023/04/08 01:10:02;;;;;;;;;;;;;;;6.44;nan;101613.59;4138876;28;19932;-67
2023/04/08 01:12:06;;;;;;;;;;;;;;;6.43;nan;101619.09;4138741;28;19936;-67
2023/04/08 01:14:09;;;;;;;;;;;;;;;6.39;nan;101610.41;4161918;28;19983;-66
2023/04/08 01:16:13;;;;;;;;;;;;;;;6.41;nan;101623.72;4145639;28;20012;-66
2023/04/08 01:18:15;;;;;;;;;;;;;;;6.41;nan;101621.91;4138915;28;20312;-66
2023/04/08 01:20:18;;;;;;;;;;;;;;;6.42;nan;101620.06;4139228;28;19932;-65
2023/04/08 01:22:23;;;;;;;;;;;;;;;6.43;nan;101624.44;4138668;28;20481;-67
2023/04/08 01:24:26;;;;;;;;;;;;;;;6.44;nan;101629.69;4161783;28;19935;-67
2023/04/08 01:26:31;;;;;;;;;;;;;;;6.44;nan;101631.50;4138891;28;19929;-66
2023/04/08 01:28:33;;;;;;;;;;;;;;;6.43;nan;101627.97;4138818;28;19926;-66
2023/04/08 01:30:36;;;;;;;;;;;;;;;6.43;nan;101629.81;4138857;28;19932;-66
2023/04/08 01:32:38;;;;;;;;;;;;;;;6.41;nan;101631.75;4144608;28;19929;-67
2023/04/08 01:34:40;;;;;;;;;;;;;;;6.38;nan;101624.84;4139153;28;19941;-66
2023/04/08 01:36:42;;;;;;;;;;;;;;;6.39;nan;101623.00;4136514;28;19925;-66
2023/04/08 01:38:44;;;;;;;;;;;;;;;6.38;nan;101624.84;4144690;28;19925;-66
2023/04/08 01:40:47;;;;;;;;;;;;;;;6.39;nan;101623.84;4137518;28;19930;-66
2023/04/08 01:42:50;;;;;;;;;;;;;;;6.39;100.00;63746.28;4138158;28;20304;-66
2023/04/08 01:44:53;;;;;;;;;;;;;;;6.40;nan;101628.25;4145411;28;20019;-66
2023/04/08 01:46:55;;;;;;;;;;;;;;;6.40;nan;101630.91;4144490;28;19925;-66
2023/04/08 01:48:57;;;;;;;;;;;;;;;6.40;nan;101624.72;4139565;28;20384;-66
2023/04/08 01:51:00;;;;;;;;;;;;;;;6.41;nan;101634.44;4143801;28;20392;-67
2023/04/08 01:53:02;;;;;;;;;;;;;;;6.40;nan;101636.28;4152111;28;19929;-64
2023/04/08 01:55:04;;;;;;;;;;;;;;;6.42;nan;101628.09;4137324;28;19940;-66
2023/04/08 01:57:07;;;;;;;;;;;;;;;6.42;nan;101631.63;4160279;28;19932;-66
2023/04/08 01:59:13;;;;;;;;;;;;;;;6.42;nan;101628.09;4139816;28;19930;-66
2023/04/08 02:01:17;;;;;;;;;;;;;;;6.40;nan;101628.25;4152656;28;19935;-67
2023/04/08 02:03:19;;;;;;;;;;;;;;;6.41;nan;101629.94;4152489;28;19932;-66
2023/04/08 02:05:21;;;;;;;;;;;;;;;6.43;nan;101629.81;4137621;28;19930;-66
2023/04/08 02:07:24;;;;;;;;;;;;;;;6.40;nan;101636.28;4137962;28;19933;-66
2023/04/08 02:09:26;;;;;;;;;;;;;;;6.40;nan;101641.66;4137875;28;19929;-66
2023/04/08 02:11:28;;;;;;;;;;;;;;;6.40;nan;101635.44;4138305;28;19925;-66
2023/04/08 02:13:30;;;;;;;;;;;;;;;6.39;nan;101648.00;4143862;28;19951;-66
2023/04/08 02:15:35;;;;;;;;;;;;;;;6.37;nan;101633.00;4161105;28;19929;-66
2023/04/08 02:17:39;;;;;;;;;;;;;;;6.41;nan;101646.06;4156534;28;19925;-66
2023/04/08 02:19:44;;;;;;;;;;;;;;;6.39;nan;101639.09;4145122;28;19929;-66
2023/04/08 02:21:47;;;;;;;;;;;;;;;6.39;nan;101647.16;4143239;28;20407;-65
2023/04/08 02:23:50;;;;;;;;;;;;;;;6.38;nan;101650.78;4138808;28;19932;-65
2023/04/08 02:25:52;;;;;;;;;;;;;;;6.37;nan;101649.13;4138720;28;19930;-66
2023/04/08 02:27:54;;;;;;;;;;;;;;;6.36;nan;101648.25;4138049;28;19925;-66
2023/04/08 02:29:56;;;;;;;;;;;;;;;6.37;nan;101658.00;4138702;28;19930;-65
2023/04/08 02:32:00;;;;;;;;;;;;;;;6.36;nan;101656.28;4137912;28;19926;-66
2023/04/08 02:34:02;;;;;;;;;;;;;;;6.37;nan;101652.63;4144311;28;19939;-66
2023/04/08 02:36:06;;;;;;;;;;;;;;;6.40;nan;101662.28;4138507;28;19929;-66
2023/04/08 02:38:08;;;;;;;;;;;;;;;6.41;nan;101659.47;4138493;28;19930;-66
2023/04/08 02:40:23;;;;;;;;;;;;;;;6.40;nan;101649.69;4160234;28;19936;-66
2023/04/08 02:42:26;;;;;;;;;;;;;;;6.42;nan;101665.69;4159676;28;19932;-66
2023/04/08 02:44:28;;;;;;;;;;;;;;;6.40;nan;101663.13;4144302;28;19925;-65
2023/04/08 02:46:34;;;;;;;;;;;;;;;6.38;nan;101665.09;4138593;28;20395;-66
2023/04/08 02:48:39;;;;;;;;;;;;;;;6.40;nan;101667.66;4144204;28;20044;-66
2023/04/08 02:50:42;;;;;;;;;;;;;;;6.40;nan;101670.31;4137156;28;19930;-65
2023/04/08 02:52:44;;;;;;;;;;;;;;;6.40;nan;101664.97;4137539;28;19997;-66
2023/04/08 02:54:46;;;;;;;;;;;;;;;6.38;nan;101672.25;4138868;28;20392;-66
2023/04/08 02:56:49;;;;;;;;;;;;;;;6.38;nan;101670.44;4158836;28;19926;-66
2023/04/08 02:58:51;;;;;;;;;;;;;;;6.39;nan;101669.44;4138596;28;20291;-66
2023/04/08 03:00:53;;;;;;;;;;;;;;;6.39;nan;101669.44;4138991;28;19930;-66
2023/04/08 03:02:55;;;;;;;;;;;;;;;6.40;nan;101667.66;4137605;28;19955;-66
2023/04/08 03:04:59;;;;;;;;;;;;;;;6.39;nan;101666.78;4138056;28;19926;-66
2023/04/08 03:07:01;;;;;;;;;;;;;;;6.38;nan;101667.78;4138247;28;19940;-66
2023/04/08 03:09:04;;;;;;;;;;;;;;;6.39;nan;101672.13;4138151;28;19932;-67
2023/04/08 03:11:06;;;;;;;;;;;;;;;6.39;nan;101679.34;4138109;28;19925;-66
2023/04/08 03:13:09;;;;;;;;;;;;;;;6.39;nan;101677.50;4137809;28;19930;-66
2023/04/08 03:15:11;;;;;;;;;;;;;;;6.37;nan;101679.47;4138689;28;20384;-67
2023/04/08 03:17:13;;;;;;;;;;;;;;;6.38;nan;101678.50;4137350;28;19932;-66
2023/04/08 03:19:15;;;;;;;;;;;;;;;6.37;nan;101679.47;4138154;28;19930;-66
2023/04/08 03:21:19;;;;;;;;;;;;;;;6.39;nan;101682.03;4139410;28;20776;-66
2023/04/08 03:23:21;;;;;;;;;;;;;;;6.40;nan;101692.63;4141294;28;20396;-66
2023/04/08 03:25:23;;;;;;;;;;;;;;;6.42;nan;101687.16;4141228;28;19936;-66
2023/04/08 03:27:25;;;;;;;;;;;;;;;6.43;nan;101696.91;4141047;28;20295;-66
2023/04/08 03:29:27;;;;;;;;;;;;;;;6.43;nan;101688.84;4140883;28;20336;-66
2023/04/08 03:31:29;;;;;;;;;;;;;;;6.43;nan;101691.53;4141363;28;19929;-66
2023/04/08 03:33:32;;;;;;;;;;;;;;;6.41;nan;101694.34;4140365;28;19948;-66
2023/04/08 03:35:34;;;;;;;;;;;;;;;6.42;nan;101696.03;4141024;28;19925;-66
2023/04/08 03:37:37;;;;;;;;;;;;;;;6.40;nan;101692.63;4141118;28;20296;-66
2023/04/08 03:39:40;;;;;;;;;;;;;;;6.39;nan;101696.28;4140865;28;20359;-66
2023/04/08 03:41:42;;;;;;;;;;;;;;;6.38;nan;101694.59;4140216;28;19929;-66
2023/04/08 03:43:44;;;;;;;;;;;;;;;6.36;nan;101699.22;4140411;28;20295;-66
2023/04/08 03:45:46;;;;;;;;;;;;;;;6.35;nan;101692.16;4140613;28;19934;-66
2023/04/08 03:47:48;;;;;;;;;;;;;;;6.35;nan;101696.66;4140255;28;19937;-66
2023/04/08 03:49:52;;;;;;;;;;;;;;;6.36;nan;101709.94;4140762;28;20425;-66
2023/04/08 03:51:55;;;;;;;;;;;;;;;6.38;nan;101699.09;4139512;28;20438;-66
2023/04/08 03:53:59;;;;;;;;;;;;;;;6.37;nan;101708.16;4140564;28;19960;-65
2023/04/08 03:56:02;;;;;;;;;;;;;;;6.39;nan;101712.38;4147323;28;19934;-66
2023/04/08 03:58:04;;;;;;;;;;;;;;;6.38;nan;101716.06;4139838;28;20292;-66
2023/04/08 04:00:07;;;;;;;;;;;;;;;6.36;nan;101712.63;4141275;28;20304;-66
2023/04/08 04:02:14;;;;;;;;;;;;;;;6.37;nan;101722.41;4139692;28;19930;-67
2023/04/08 04:04:16;;;;;;;;;;;;;;;6.36;nan;101723.38;4140587;28;20597;-66
2023/04/08 04:06:18;;;;;;;;;;;;;;;6.36;nan;101718.00;4140949;28;20392;-66
2023/04/08 04:08:20;;;;;;;;;;;;;;;6.35;nan;101716.31;4139551;28;19930;-64
2023/04/08 04:10:24;;;;;;;;;;;;;;;6.31;nan;101717.53;4141127;28;19925;-66
2023/04/08 04:12:26;;;;;;;;;;;;;;;6.31;nan;101718.38;4139648;28;19936;-64
2023/04/08 04:14:28;;;;;;;;;;;;;;;6.30;nan;101723.88;4140053;28;20315;-66
2023/04/08 04:16:30;;;;;;;;;;;;;;;6.31;nan;101714.84;4140687;28;19930;-66
2023/04/08 04:18:33;;;;;;;;;;;;;;;6.34;nan;101721.81;4140562;28;20392;-66
2023/04/08 04:20:37;;;;;;;;;;;;;;;6.37;nan;101725.09;4140808;28;20388;-67
2023/04/08 04:22:39;;;;;;;;;;;;;;;6.38;nan;101734.84;4139831;28;19935;-66
2023/04/08 04:24:41;;;;;;;;;;;;;;;6.39;nan;101725.81;4140809;28;19925;-66
2023/04/08 04:26:44;;;;;;;;;;;;;;;6.40;nan;101732.03;4139864;28;19944;-66
2023/04/08 04:28:46;;;;;;;;;;;;;;;6.39;nan;101739.22;4139945;28;19932;-66
2023/04/08 04:30:49;;;;;;;;;;;;;;;6.41;nan;101729.25;4140236;28;19930;-66
2023/04/08 04:32:51;;;;;;;;;;;;;;;6.40;nan;101738.25;4139555;28;19926;-66
2023/04/08 04:34:53;;;;;;;;;;;;;;;6.40;nan;101738.25;4139911;28;20300;-66
2023/04/08 04:36:56;;;;;;;;;;;;;;;6.39;nan;101746.44;4139617;28;19925;-66
2023/04/08 04:38:58;;;;;;;;;;;;;;;6.36;nan;101752.03;4140307;28;19930;-66
2023/04/08 04:41:00;;;;;;;;;;;;;;;6.35;nan;101753.00;4140945;28;19926;-66
2023/04/08 04:43:04;;;;;;;;;;;;;;;6.34;nan;101749.47;4139860;28;19932;-66
2023/04/08 04:45:06;;;;;;;;;;;;;;;6.34;nan;101748.66;4140418;28;19932;-66
2023/04/08 04:47:08;;;;;;;;;;;;;;;6.35;nan;101758.38;4140226;28;19934;-66
2023/04/08 04:49:11;;;;;;;;;;;;;;;6.37;nan;101757.28;4140130;28;20310;-67
2023/04/08 04:51:13;;;;;;;;;;;;;;;6.39;nan;101757.16;4140101;28;20298;-66
2023/04/08 04:53:15;;;;;;;;;;;;;;;6.37;nan;101764.50;4139556;28;20310;-66
2023/04/08 04:55:17;;;;;;;;;;;;;;;6.36;nan;101762.78;4139897;28;19932;-66
2023/04/08 04:57:19;;;;;;;;;;;;;;;6.37;nan;101764.50;4139778;28;19929;-66
2023/04/08 04:59:23;;;;;;;;;;;;;;;6.37;nan;101768.03;4139822;28;20809;-66
2023/04/08 05:01:25;;;;;;;;;;;;;;;6.38;nan;101767.06;4139668;28;19940;-66
2023/04/08 05:03:27;;;;;;;;;;;;;;;6.38;nan;101769.75;4138912;28;20514;-66
2023/04/08 05:05:29;;;;;;;;;;;;;;;6.39;nan;101771.41;4140113;28;19930;-66
2023/04/08 05:07:31;;;;;;;;;;;;;;;6.41;nan;101772.16;4139542;28;19935;-66
2023/04/08 05:09:33;;;;;;;;;;;;;;;6.42;nan;101773.84;4139645;28;19941;-66
2023/04/08 05:11:36;;;;;;;;;;;;;;;6.43;nan;101777.41;4139296;28;20430;-66
2023/04/08 05:13:38;;;;;;;;;;;;;;;6.43;nan;101774.72;4138705;28;19948;-65
2023/04/08 05:15:42;;;;;;;;;;;;;;;6.41;nan;101774.84;4140059;28;20411;-65
2023/04/08 05:17:44;;;;;;;;;;;;;;;6.41;nan;101787.41;4138392;28;20277;-65
2023/04/08 05:19:46;;;;;;;;;;;;;;;6.40;nan;101786.56;4139142;28;19934;-64
2023/04/08 05:21:48;;;;;;;;;;;;;;;6.40;nan;101783.88;4138766;28;20429;-65
2023/04/08 05:23:51;;;;;;;;;;;;;;;6.42;nan;101792.63;4139045;28;20434;-65
2023/04/08 05:25:54;;;;;;;;;;;;;;;6.43;nan;101780.94;4139457;28;19926;-65
2023/04/08 05:27:56;;;;;;;;;;;;;;;6.45;nan;101786.19;4138944;28;20391;-66
2023/04/08 05:29:58;;;;;;;;;;;;;;;6.45;nan;101789.72;4139322;28;19930;-66
2023/04/08 05:32:02;;;;;;;;;;;;;;;6.47;nan;101792.28;4138540;28;19942;-66
2023/04/08 05:34:04;;;;;;;;;;;;;;;6.46;nan;101790.59;4139331;28;19939;-66
2023/04/08 05:36:06;;;;;;;;;;;;;;;6.46;nan;101793.28;4139173;28;19933;-66
2023/04/08 05:38:08;;;;;;;;;;;;;;;6.47;nan;101789.59;4139325;28;20410;-66
2023/04/08 05:40:11;;;;;;;;;;;;;;;6.49;nan;101806.44;4139272;28;19929;-66
2023/04/08 05:42:13;;;;;;;;;;;;;;;6.50;nan;101800.06;4138937;28;19929;-66
2023/04/08 05:44:15;;;;;;;;;;;;;;;6.53;nan;101807.88;4138447;28;19936;-65
2023/04/08 05:46:17;;;;;;;;;;;;;;;6.54;nan;101811.44;4139042;28;19930;-66
2023/04/08 05:48:21;;;;;;;;;;;;;;;6.55;nan;101805.94;4138475;28;19952;-66
2023/04/08 05:50:23;;;;;;;;;;;;;;;6.53;nan;101809.72;4161083;28;19931;-65
2023/04/08 05:52:25;;;;;;;;;;;;;;;6.55;nan;101808.63;4138469;28;19980;-65
2023/04/08 05:54:27;;;;;;;;;;;;;;;6.54;nan;101812.28;4138753;28;20281;-66
2023/04/08 05:56:31;;;;;;;;;;;;;;;6.55;nan;101811.31;4139347;28;19925;-66
2023/04/08 05:58:33;;;;;;;;;;;;;;;6.56;nan;101813.00;4138403;28;19926;-65
2023/04/08 06:00:35;;;;;;;;;;;;;;;6.57;nan;101813.88;4139620;28;19929;-66
2023/04/08 06:02:37;;;;;;;;;;;;;;;6.55;nan;101819.38;4138212;28;20290;-66
2023/04/08 06:04:41;;;;;;;;;;;;;;;6.57;nan;101824.59;4138691;28;19925;-66
2023/04/08 06:06:43;;;;;;;;;;;;;;;6.59;nan;101823.50;4138679;28;19925;-66
2023/04/08 06:08:46;;;;;;;;;;;;;;;6.60;nan;101824.34;4138719;28;19926;-66
2023/04/08 06:10:48;;;;;;;;;;;;;;;6.62;nan;101828.59;4138549;28;20395;-65
2023/04/08 06:12:50;;;;;;;;;;;;;;;6.64;nan;101833.84;4139057;28;19929;-66
2023/04/08 06:14:53;;;;;;;;;;;;;;;6.65;nan;101832.88;4138894;28;19936;-65
2023/04/08 06:16:56;;;;;;;;;;;;;;;6.67;nan;101838.97;4137463;28;19933;-66
2023/04/08 06:18:58;;;;;;;;;;;;;;;6.67;nan;101834.44;4137986;28;19925;-65
2023/04/08 06:21:01;;;;;;;;;;;;;;;6.70;nan;101837.88;4137212;28;19944;-65
2023/04/08 06:23:03;;;;;;;;;;;;;;;6.72;nan;101838.59;4137933;28;19926;-65
2023/04/08 06:25:06;;;;;;;;;;;;;;;6.71;nan;101839.56;4139143;28;19930;-66
2023/04/08 06:27:09;;;;;;;;;;;;;;;6.72;nan;101844.81;4143433;28;19925;-65
2023/04/08 06:29:11;;;;;;;;;;;;;;;6.73;nan;101843.84;4138480;28;20271;-66
2023/04/08 06:31:13;;;;;;;;;;;;;;;6.75;nan;101851.78;4144778;28;19929;-66
2023/04/08 06:33:15;;;;;;;;;;;;;;;6.75;nan;101855.31;4137157;28;19930;-66
2023/04/08 06:35:17;;;;;;;;;;;;;;;6.77;nan;101855.19;4138876;28;19936;-65
2023/04/08 06:37:21;;;;;;;;;;;;;;;6.78;nan;101859.59;4139316;28;19930;-65
2023/04/08 06:39:23;;;;;;;;;;;;;;;6.79;nan;101850.56;4138656;28;19930;-65
2023/04/08 06:41:25;;;;;;;;;;;;;;;6.80;nan;101863.00;4138927;28;19925;-65
2023/04/08 06:43:28;;;;;;;;;;;;;;;6.80;nan;101868.34;4142297;28;19929;-65
2023/04/08 06:45:30;;;;;;;;;;;;;;;6.82;nan;101869.13;4139558;28;19926;-65
2023/04/08 06:47:32;;;;;;;;;;;;;;;6.83;nan;101862.75;4137654;28;19956;-65
2023/04/08 06:49:36;;;;;;;;;;;;;;;6.82;nan;101869.97;4137834;28;19925;-65
2023/04/08 06:51:38;;;;;;;;;;;;;;;6.83;nan;101874.34;4137603;28;19929;-65
2023/04/08 06:53:41;;;;;;;;;;;;;;;6.85;nan;101876.91;4137611;28;20166;-65
2023/04/08 06:55:44;;;;;;;;;;;;;;;6.88;nan;101879.34;4140223;28;19925;-66
2023/04/08 06:57:46;;;;;;;;;;;;;;;6.91;nan;101892.53;4140756;28;19935;-65
2023/04/08 06:59:48;;;;;;;;;;;;;;;6.96;nan;101890.31;4141021;28;19929;-65
2023/04/08 07:01:50;;;;;;;;;;;;;;;6.98;nan;101891.03;4140811;28;20319;-65
2023/04/08 07:03:52;;;;;;;;;;;;;;;7.02;nan;101897.88;4141348;28;19926;-64
2023/04/08 07:05:54;;;;;;;;;;;;;;;7.03;nan;101893.34;4140833;28;19925;-65
2023/04/08 07:07:57;;;;;;;;;;;;;;;7.07;nan;101902.00;4140140;28;19948;-64
2023/04/08 07:10:00;;;;;;;;;;;;;;;7.07;nan;101892.13;4141102;28;19926;-65
2023/04/08 07:12:03;;;;;;;;;;;;;;;7.10;nan;101902.63;4140752;28;20367;-64
2023/04/08 07:14:05;;;;;;;;;;;;;;;7.11;nan;101901.63;4140591;28;20291;-65
2023/04/08 07:16:07;;;;;;;;;;;;;;;7.14;nan;101906.75;4140605;28;19934;-66
2023/04/08 07:18:11;;;;;;;;;;;;;;;7.17;nan;101902.97;4140595;28;19934;-66
2023/04/08 07:20:13;;;;;;;;;;;;;;;7.17;nan;101911.03;4140765;28;19925;-66
2023/04/08 07:22:17;;;;;;;;;;;;;;;7.19;nan;101903.69;4139629;28;20242;-66
2023/04/08 07:24:19;;;;;;;;;;;;;;;7.21;nan;101907.97;4140709;28;20012;-66
2023/04/08 07:26:23;;;;;;;;;;;;;;;7.23;nan;101910.53;4140801;28;19925;-65
2023/04/08 07:28:25;;;;;;;;;;;;;;;7.26;nan;101915.66;4139516;28;19930;-65
2023/04/08 07:30:27;;;;;;;;;;;;;;;7.27;nan;101913.81;4140941;28;19930;-66
2023/04/08 07:32:29;;;;;;;;;;;;;;;7.29;nan;101909.16;4162323;28;19931;-65
2023/04/08 07:34:31;;;;;;;;;;;;;;;7.30;nan;101913.56;4140868;28;19925;-66
2023/04/08 07:36:34;;;;;;;;;;;;;;;7.31;nan;101916.13;4146592;28;19931;-66
2023/04/08 07:38:36;;;;;;;;;;;;;;;7.33;nan;101922.22;4140202;28;19936;-65
2023/04/08 07:40:38;;;;;;;;;;;;;;;7.34;nan;101925.78;4140323;28;19932;-65
2023/04/08 07:42:41;;;;;;;;;;;;;;;7.36;nan;101924.63;4139847;28;19925;-65
2023/04/08 07:44:44;;;;;;;;;;;;;;;7.37;nan;101922.81;4140642;28;19925;-65
2023/04/08 07:46:49;;;;;;;;;;;;;;;7.38;nan;101922.69;4140026;28;19929;-64
2023/04/08 07:48:51;;;;;;;;;;;;;;;7.39;nan;101934.28;4140909;28;20383;-65
2023/04/08 07:50:54;;;;;;;;;;;;;;;7.41;nan;101926.94;4141082;28;19935;-65
2023/04/08 07:52:56;;;;;;;;;;;;;;;7.41;nan;101918.88;4139591;28;19925;-65
2023/04/08 07:54:58;;;;;;;;;;;;;;;7.42;nan;101930.50;4140508;28;19932;-65
2023/04/08 07:57:00;;;;;;;;;;;;;;;7.44;nan;101931.22;4139924;28;19933;-66
2023/04/08 07:59:04;;;;;;;;;;;;;;;7.45;nan;101924.88;4139972;28;19937;-65
2023/04/08 08:01:14;;;;;;;;;;;;;;;7.46;nan;101935.50;4140056;28;19929;-65
2023/04/08 08:03:16;;;;;;;;;;;;;;;7.47;nan;101937.19;4139368;28;19936;-65
2023/04/08 08:05:18;;;;;;;;;;;;;;;7.48;nan;101943.44;4140845;28;20479;-65
2023/04/08 08:07:21;;;;;;;;;;;;;;;7.50;nan;101930.72;4138644;28;20372;-66
2023/04/08 08:09:23;;;;;;;;;;;;;;;7.52;nan;101934.13;4139895;28;19935;-65
2023/04/08 08:11:26;;;;;;;;;;;;;;;7.54;nan;101932.19;4140083;28;19932;-66
2023/04/08 08:13:28;;;;;;;;;;;;;;;7.55;nan;101937.44;4145045;28;19926;-65
2023/04/08 08:15:32;;;;;;;;;;;;;;;7.56;nan;101939.13;4145696;28;19936;-65
2023/04/08 08:17:34;;;;;;;;;;;;;;;7.56;nan;101941.81;4139146;28;19925;-65
2023/04/08 08:19:36;;;;;;;;;;;;;;;7.56;nan;101941.81;4139905;28;20418;-66
2023/04/08 08:21:39;;;;;;;;;;;;;;;7.56;nan;101938.28;4139844;28;19929;-65
2023/04/08 08:23:41;;;;;;;;;;;;;;;7.57;nan;101948.06;4138883;28;20248;-65
2023/04/08 08:25:43;;;;;;;;;;;;;;;7.57;nan;101942.69;4140253;28;19936;-64
2023/04/08 08:27:45;;;;;;;;;;;;;;;7.57;nan;101953.44;4139679;28;19929;-64
2023/04/08 08:29:47;;;;;;;;;;;;;;;7.57;nan;101948.06;4139964;28;20825;-65
2023/04/08 08:31:51;;;;;;;;;;;;;;;7.58;nan;101949.75;4138578;28;19945;-66
2023/04/08 08:33:53;;;;;;;;;;;;;;;7.57;nan;101954.28;4139543;28;19936;-66
2023/04/08 08:35:56;;;;;;;;;;;;;;;7.58;nan;101957.81;4139821;28;19925;-65
2023/04/08 08:37:58;;;;;;;;;;;;;;;7.58;nan;101961.34;4140085;28;19932;-66
2023/04/08 08:40:01;;;;;;;;;;;;;;;7.58;nan;101961.34;4140253;28;20311;-64
2023/04/08 08:42:03;;;;;;;;;;;;;;;7.59;nan;101964.91;4138651;28;19948;-66
2023/04/08 08:44:05;;;;;;;;;;;;;;;7.58;nan;101965.88;4140099;28;19930;-64
2023/04/08 08:46:08;;;;;;;;;;;;;;;7.58;nan;101974.78;4140617;28;19936;-66
2023/04/08 08:48:11;;;;;;;;;;;;;;;7.59;nan;101975.66;4140641;28;20292;-64
2023/04/08 08:50:14;;;;;;;;;;;;;;;7.60;nan;101982.72;4141025;28;19948;-66
2023/04/08 08:52:17;;;;;;;;;;;;;;;7.58;nan;101979.31;4140156;28;19936;-66
2023/04/08 08:54:19;;;;;;;;;;;;;;;7.58;nan;101977.47;4141167;28;19930;-64
2023/04/08 08:56:21;;;;;;;;;;;;;;;7.59;nan;101978.34;4140246;28;19936;-65
2023/04/08 08:58:26;;;;;;;;;;;;;;;7.61;nan;101980.91;4139958;28;19948;-65
2023/04/08 09:00:32;;;;;;;;;;;;;;;7.61;nan;101983.59;4141731;28;19957;-65
2023/04/08 09:02:34;;;;;;;;;;;;;;;7.63;nan;101989.69;4140912;28;20318;-63
2023/04/08 09:04:38;;;;;;;;;;;;;;;7.58;nan;101973.94;4139008;28;20396;-64
2023/04/08 09:06:40;;;;;;;;;;;;;;;7.63;nan;101985.16;4140684;28;19929;-65
2023/04/08 09:08:42;;;;;;;;;;;;;;;7.65;nan;101987.72;4122490;28;20862;-65
2023/04/08 09:10:44;;;;;;;;;;;;;;;7.64;nan;101991.41;4126693;28;20407;-64
2023/04/08 09:12:53;;;;;;;;;;;;;;;7.66;nan;101992.13;4121355;28;20016;-64
2023/04/08 09:15:05;;;;;;;;;;;;;;;7.66;nan;101995.66;4140549;28;19930;-65
2023/04/08 09:17:07;;;;;;;;;;;;;;;7.67;nan;102002.75;4151160;28;19929;-65
2023/04/08 09:19:11;;;;;;;;;;;;;;;7.67;nan;102008.13;4143223;28;19951;-64
2023/04/08 09:21:15;;;;;;;;;;;;;;;7.68;nan;102008.97;4140967;28;19930;-65
2023/04/08 09:23:17;;;;;;;;;;;;;;;7.70;nan;102001.66;4139417;28;20327;-64
2023/04/08 09:25:23;;;;;;;;;;;;;;;7.71;nan;102006.03;4141896;28;19936;-65
2023/04/08 09:27:33;;;;;;;;;;;;;;;7.72;nan;102005.06;4140500;28;19929;-64
2023/04/08 09:29:36;;;;;;;;;;;;;;;7.73;nan;102006.78;4144870;28;19948;-64
2023/04/08 09:31:40;;;;;;;;;;;;;;;7.74;nan;102009.34;4140849;28;19926;-64
2023/04/08 09:33:42;;;;;;;;;;;;;;;7.76;nan;102009.22;4139798;28;20944;-63
2023/04/08 09:35:45;;;;;;;;;;;;;;;7.75;nan;102008.34;4140907;28;19926;-62
2023/04/08 09:37:49;;;;;;;;;;;;;;;7.76;nan;102011.91;4140862;28;19932;-65
2023/04/08 09:39:51;;;;;;;;;;;;;;;7.79;nan;102010.78;4140644;28;19926;-64
2023/04/08 09:41:53;;;;;;;;;;;;;;;7.79;nan;102008.09;4139931;28;19941;-64
2023/04/08 09:43:55;;;;;;;;;;;;;;;7.79;nan;102011.66;4140365;28;19936;-63
2023/04/08 09:45:58;;;;;;;;;;;;;;;7.81;nan;102011.53;4140729;28;19937;-63
2023/04/08 09:48:01;;;;;;;;;;;;;;;7.81;nan;102015.06;4139631;28;20380;-64
2023/04/08 09:50:04;;;;;;;;;;;;;;;7.82;nan;102014.09;4140791;28;19926;-65
2023/04/08 09:52:07;;;;;;;;;;;;;;;7.84;nan;102022.88;4139800;28;20408;-65
2023/04/08 09:54:12;;;;;;;;;;;;;;;7.85;nan;102016.53;4139810;28;19936;-63
2023/04/08 09:56:15;;;;;;;;;;;;;;;7.85;nan;102011.16;4139776;28;19935;-64
2023/04/08 09:58:18;;;;;;;;;;;;;;;7.88;nan;102010.03;4139473;28;19929;-65
2023/04/08 10:00:21;;;;;;;;;;;;;;;7.90;nan;102010.78;4138668;28;19925;-64
2023/04/08 10:02:29;;;;;;;;;;;;;;;7.90;nan;102014.31;4137952;28;19932;-65
2023/04/08 10:04:31;;;;;;;;;;;;;;;7.90;nan;102018.84;4139424;28;19930;-65
2023/04/08 10:06:34;;;;;;;;;;;;;;;7.92;nan;102016.88;4138917;28;19936;-65
2023/04/08 10:08:36;;;;;;;;;;;;;;;7.95;nan;102019.31;4139113;28;19945;-64
2023/04/08 10:10:40;;;;;;;;;;;;;;;7.95;nan;102016.59;4159900;28;19928;-65
2023/04/08 10:12:42;;;;;;;;;;;;;;;7.95;nan;102016.59;4139113;28;19926;-66
2023/04/08 10:14:56;;;;;;;;;;;;;;;7.95;nan;102019.31;4136718;28;19945;-65
2023/04/08 10:17:13;;;;;;;;;;;;;;;7.97;nan;102014.63;4158614;28;19984;-65
2023/04/08 10:19:37;;;;;;;;;;;;;;;7.98;nan;102023.53;4138493;28;19925;-65
2023/04/08 10:21:42;;;;;;;;;;;;;;;7.99;nan;102012.66;4138954;28;20277;-65
2023/04/08 10:23:53;;;;;;;;;;;;;;;7.99;nan;102020.72;4137674;28;20271;-64
2023/04/08 10:25:57;;;;;;;;;;;;;;;8.00;nan;102014.38;4139248;28;19944;-65
2023/04/08 10:27:59;;;;;;;;;;;;;;;8.01;nan;102017.91;4138711;28;20392;-64
2023/04/08 10:30:02;;;;;;;;;;;;;;;8.02;nan;102017.78;4138675;28;19941;-65
2023/04/08 10:32:05;;;;;;;;;;;;;;;8.04;nan;102017.66;4139644;28;19934;-66
2023/04/08 10:34:15;;;;;;;;;;;;;;;8.05;nan;102016.69;4139287;28;19947;-70
2023/04/08 10:36:18;;;;;;;;;;;;;;;8.06;nan;102016.56;4139588;28;19933;-66
2023/04/08 10:38:20;;;;;;;;;;;;;;;8.07;nan;102012.88;4138931;28;19941;-65
2023/04/08 10:40:22;;;;;;;;;;;;;;;8.09;nan;102018.97;4139010;28;19926;-66
2023/04/08 10:42:29;;;;;;;;;;;;;;;8.10;nan;102012.63;4138521;28;20315;-66
2023/04/08 10:44:31;;;;;;;;;;;;;;;8.11;nan;102013.47;4139341;28;19925;-64
2023/04/08 10:46:37;;;;;;;;;;;;;;;8.15;nan;102022.13;4139339;28;19932;-66
2023/04/08 10:48:39;;;;;;;;;;;;;;;8.16;nan;102018.47;4138334;28;20385;-65
2023/04/08 10:50:41;;;;;;;;;;;;;;;8.18;nan;102014.69;4139362;28;19929;-67
2023/04/08 10:52:46;;;;;;;;;;;;;;;8.22;nan;102020.63;4137485;28;19925;-66
2023/04/08 10:54:48;;;;;;;;;;;;;;;8.23;nan;102016.97;4137604;28;19925;-63
2023/04/08 10:56:51;;;;;;;;;;;;;;;8.29;nan;102019.13;4137256;28;19957;-64